Terminal Aerodrome Forecast
Issued by NWS

Home | Current Version | Previous Version | Text Only | Print | Product List | Glossary On
Versions: 1 2 3 4 5 6 7 8 9 10 11 12 13 14 15 16 17 18 19 20
660
FTUS46 KSEW 201134
TAFOLM
TAF
KOLM 201134Z 2012/2112 01005KT P6SM BCFG BKN200
      TEMPO 2012/2016 1SM BR SCT001 BKN200
     FM201600 02005KT P6SM BKN100 BKN200
     FM201900 06005KT P6SM -RA BKN050 OVC080
     FM210100 VRB03KT P6SM SCT050 OVC080=

USA.gov is the U.S. government's official web portal to all federal, state and local government web resources and services.